sensor_id;sensor_type;location;lat;lon;timestamp;P1;durP1;ratioP1;P2;durP2;ratioP2
74512;SDS011;62992;52.052;8.550;2022-09-06T00:00:06;8.98;;;4.88;;
74512;SDS011;62992;52.052;8.550;2022-09-06T00:02:34;5.30;;;4.80;;
74512;SDS011;62992;52.052;8.550;2022-09-06T00:05:00;5.47;;;4.90;;
74512;SDS011;62992;52.052;8.550;2022-09-06T00:07:27;5.25;;;4.65;;
74512;SDS011;62992;52.052;8.550;2022-09-06T00:09:53;8.10;;;5.15;;
74512;SDS011;62992;52.052;8.550;2022-09-06T00:12:18;5.97;;;4.60;;
74512;SDS011;62992;52.052;8.550;2022-09-06T00:14:44;5.65;;;5.03;;
74512;SDS011;62992;52.052;8.550;2022-09-06T00:17:10;5.38;;;4.88;;
74512;SDS011;62992;52.052;8.550;2022-09-06T00:19:36;5.40;;;4.90;;
74512;SDS011;62992;52.052;8.550;2022-09-06T00:22:01;6.20;;;5.03;;
74512;SDS011;62992;52.052;8.550;2022-09-06T00:24:27;6.18;;;5.05;;
74512;SDS011;62992;52.052;8.550;2022-09-06T00:26:53;6.10;;;4.70;;
74512;SDS011;62992;52.052;8.550;2022-09-06T00:29:18;6.57;;;4.50;;
74512;SDS011;62992;52.052;8.550;2022-09-06T00:31:44;6.70;;;5.45;;
74512;SDS011;62992;52.052;8.550;2022-09-06T00:34:09;5.32;;;4.80;;
74512;SDS011;62992;52.052;8.550;2022-09-06T00:36:35;8.18;;;5.22;;
74512;SDS011;62992;52.052;8.550;2022-09-06T00:39:01;5.30;;;4.75;;
74512;SDS011;62992;52.052;8.550;2022-09-06T00:41:26;8.18;;;4.50;;
74512;SDS011;62992;52.052;8.550;2022-09-06T00:43:52;6.43;;;4.88;;
74512;SDS011;62992;52.052;8.550;2022-09-06T00:46:22;6.95;;;4.95;;
74512;SDS011;62992;52.052;8.550;2022-09-06T00:48:53;5.18;;;4.65;;
74512;SDS011;62992;52.052;8.550;2022-09-06T00:51:22;7.18;;;4.95;;
74512;SDS011;62992;52.052;8.550;2022-09-06T00:53:50;5.15;;;4.57;;
74512;SDS011;62992;52.052;8.550;2022-09-06T00:56:16;5.80;;;4.57;;
74512;SDS011;62992;52.052;8.550;2022-09-06T00:58:43;5.20;;;4.70;;
74512;SDS011;62992;52.052;8.550;2022-09-06T01:01:09;4.90;;;4.40;;
74512;SDS011;62992;52.052;8.550;2022-09-06T01:03:35;6.22;;;4.68;;
74512;SDS011;62992;52.052;8.550;2022-09-06T01:14:53;5.20;;;4.68;;
74512;SDS011;62992;52.052;8.550;2022-09-06T01:30:49;5.60;;;4.80;;
74512;SDS011;62992;52.052;8.550;2022-09-06T01:34:32;5.75;;;4.40;;
74512;SDS011;62992;52.052;8.550;2022-09-06T01:37:16;6.03;;;4.60;;
74512;SDS011;62992;52.052;8.550;2022-09-06T01:39:28;5.63;;;4.30;;
74512;SDS011;62992;52.052;8.550;2022-09-06T01:41:56;5.07;;;4.45;;
74512;SDS011;62992;52.052;8.550;2022-09-06T01:44:24;5.40;;;4.90;;
74512;SDS011;62992;52.052;8.550;2022-09-06T01:56:16;4.82;;;4.20;;
74512;SDS011;62992;52.052;8.550;2022-09-06T02:04:22;5.15;;;4.65;;
74512;SDS011;62992;52.052;8.550;2022-09-06T02:07:26;5.40;;;4.40;;
74512;SDS011;62992;52.052;8.550;2022-09-06T02:09:47;7.32;;;4.82;;
74512;SDS011;62992;52.052;8.550;2022-09-06T02:12:17;6.53;;;4.70;;
74512;SDS011;62992;52.052;8.550;2022-09-06T02:14:51;4.85;;;4.38;;
74512;SDS011;62992;52.052;8.550;2022-09-06T02:17:31;4.93;;;4.25;;
74512;SDS011;62992;52.052;8.550;2022-09-06T02:20:06;5.00;;;4.50;;
74512;SDS011;62992;52.052;8.550;2022-09-06T02:22:38;5.00;;;4.55;;
74512;SDS011;62992;52.052;8.550;2022-09-06T02:25:08;8.07;;;4.60;;
74512;SDS011;62992;52.052;8.550;2022-09-06T02:27:36;5.30;;;4.13;;
74512;SDS011;62992;52.052;8.550;2022-09-06T02:30:03;4.90;;;4.10;;
74512;SDS011;62992;52.052;8.550;2022-09-06T02:32:30;5.40;;;4.50;;
74512;SDS011;62992;52.052;8.550;2022-09-06T02:35:04;5.80;;;4.60;;
74512;SDS011;62992;52.052;8.550;2022-09-06T02:37:36;5.28;;;4.53;;
74512;SDS011;62992;52.052;8.550;2022-09-06T02:40:02;6.50;;;5.32;;
74512;SDS011;62992;52.052;8.550;2022-09-06T02:42:29;5.30;;;4.80;;
74512;SDS011;62992;52.052;8.550;2022-09-06T02:44:54;5.22;;;4.43;;
74512;SDS011;62992;52.052;8.550;2022-09-06T02:47:20;5.32;;;4.63;;
74512;SDS011;62992;52.052;8.550;2022-09-06T02:49:45;5.60;;;4.57;;
74512;SDS011;62992;52.052;8.550;2022-09-06T02:52:11;5.82;;;4.90;;
74512;SDS011;62992;52.052;8.550;2022-09-06T02:54:37;5.78;;;5.18;;
74512;SDS011;62992;52.052;8.550;2022-09-06T02:57:02;8.38;;;5.10;;
74512;SDS011;62992;52.052;8.550;2022-09-06T02:59:28;5.82;;;4.70;;
74512;SDS011;62992;52.052;8.550;2022-09-06T03:01:53;5.70;;;5.10;;
74512;SDS011;62992;52.052;8.550;2022-09-06T03:04:19;5.65;;;5.05;;
74512;SDS011;62992;52.052;8.550;2022-09-06T03:06:45;6.85;;;5.30;;
74512;SDS011;62992;52.052;8.550;2022-09-06T03:09:10;7.50;;;4.78;;
74512;SDS011;62992;52.052;8.550;2022-09-06T03:11:36;5.20;;;4.70;;
74512;SDS011;62992;52.052;8.550;2022-09-06T03:14:02;6.50;;;4.75;;
74512;SDS011;62992;52.052;8.550;2022-09-06T03:16:27;5.22;;;4.55;;
74512;SDS011;62992;52.052;8.550;2022-09-06T03:18:53;5.35;;;4.65;;
74512;SDS011;62992;52.052;8.550;2022-09-06T03:21:18;5.60;;;5.00;;
74512;SDS011;62992;52.052;8.550;2022-09-06T03:23:44;5.15;;;4.65;;
74512;SDS011;62992;52.052;8.550;2022-09-06T03:26:10;5.07;;;4.57;;
74512;SDS011;62992;52.052;8.550;2022-09-06T03:28:35;6.63;;;5.50;;
74512;SDS011;62992;52.052;8.550;2022-09-06T03:31:01;6.75;;;4.82;;
74512;SDS011;62992;52.052;8.550;2022-09-06T03:33:27;7.47;;;5.18;;
74512;SDS011;62992;52.052;8.550;2022-09-06T03:35:54;6.40;;;5.03;;
74512;SDS011;62992;52.052;8.550;2022-09-06T03:38:22;5.22;;;4.72;;
74512;SDS011;62992;52.052;8.550;2022-09-06T03:40:48;6.35;;;5.07;;
74512;SDS011;62992;52.052;8.550;2022-09-06T03:43:15;6.65;;;5.30;;
74512;SDS011;62992;52.052;8.550;2022-09-06T03:45:45;6.30;;;5.50;;
74512;SDS011;62992;52.052;8.550;2022-09-06T03:48:12;6.97;;;5.40;;
74512;SDS011;62992;52.052;8.550;2022-09-06T03:50:46;6.45;;;5.05;;
74512;SDS011;62992;52.052;8.550;2022-09-06T03:53:16;6.25;;;5.05;;
74512;SDS011;62992;52.052;8.550;2022-09-06T03:55:44;5.32;;;4.82;;
74512;SDS011;62992;52.052;8.550;2022-09-06T03:58:10;5.78;;;5.18;;
74512;SDS011;62992;52.052;8.550;2022-09-06T04:00:36;6.10;;;5.43;;
74512;SDS011;62992;52.052;8.550;2022-09-06T04:03:02;6.22;;;5.38;;
74512;SDS011;62992;52.052;8.550;2022-09-06T04:05:27;6.53;;;5.78;;
74512;SDS011;62992;52.052;8.550;2022-09-06T04:07:53;6.00;;;5.40;;
74512;SDS011;62992;52.052;8.550;2022-09-06T04:10:19;6.07;;;5.50;;
74512;SDS011;62992;52.052;8.550;2022-09-06T04:12:44;6.32;;;5.72;;
74512;SDS011;62992;52.052;8.550;2022-09-06T04:15:10;7.20;;;5.78;;
74512;SDS011;62992;52.052;8.550;2022-09-06T04:17:35;6.50;;;5.80;;
74512;SDS011;62992;52.052;8.550;2022-09-06T04:20:01;6.53;;;5.43;;
74512;SDS011;62992;52.052;8.550;2022-09-06T04:22:27;7.63;;;5.65;;
74512;SDS011;62992;52.052;8.550;2022-09-06T04:24:53;5.97;;;5.35;;
74512;SDS011;62992;52.052;8.550;2022-09-06T04:27:19;6.10;;;5.50;;
74512;SDS011;62992;52.052;8.550;2022-09-06T04:29:44;5.97;;;5.25;;
74512;SDS011;62992;52.052;8.550;2022-09-06T04:32:10;6.75;;;5.53;;
74512;SDS011;62992;52.052;8.550;2022-09-06T04:34:35;7.88;;;5.45;;
74512;SDS011;62992;52.052;8.550;2022-09-06T04:37:01;7.95;;;5.72;;
74512;SDS011;62992;52.052;8.550;2022-09-06T04:39:26;6.25;;;5.60;;
74512;SDS011;62992;52.052;8.550;2022-09-06T04:41:52;7.03;;;5.72;;
74512;SDS011;62992;52.052;8.550;2022-09-06T04:44:17;6.25;;;5.70;;
74512;SDS011;62992;52.052;8.550;2022-09-06T04:46:43;6.75;;;5.43;;
74512;SDS011;62992;52.052;8.550;2022-09-06T04:49:09;7.50;;;5.53;;
74512;SDS011;62992;52.052;8.550;2022-09-06T04:51:34;6.68;;;5.20;;
74512;SDS011;62992;52.052;8.550;2022-09-06T04:54:01;6.20;;;5.60;;
74512;SDS011;62992;52.052;8.550;2022-09-06T04:56:26;7.18;;;5.75;;
74512;SDS011;62992;52.052;8.550;2022-09-06T04:58:52;7.65;;;6.18;;
74512;SDS011;62992;52.052;8.550;2022-09-06T05:01:20;8.05;;;6.28;;
74512;SDS011;62992;52.052;8.550;2022-09-06T05:03:45;6.50;;;5.65;;
74512;SDS011;62992;52.052;8.550;2022-09-06T05:06:12;6.45;;;5.50;;
74512;SDS011;62992;52.052;8.550;2022-09-06T05:08:44;9.43;;;5.65;;
74512;SDS011;62992;52.052;8.550;2022-09-06T05:11:10;7.22;;;5.97;;
74512;SDS011;62992;52.052;8.550;2022-09-06T05:13:36;6.90;;;6.25;;
74512;SDS011;62992;52.052;8.550;2022-09-06T05:16:03;6.70;;;5.15;;
74512;SDS011;62992;52.052;8.550;2022-09-06T05:18:30;6.47;;;5.32;;
74512;SDS011;62992;52.052;8.550;2022-09-06T05:20:56;8.27;;;5.45;;
74512;SDS011;62992;52.052;8.550;2022-09-06T05:23:22;8.68;;;5.75;;
74512;SDS011;62992;52.052;8.550;2022-09-06T05:25:49;6.00;;;5.40;;
74512;SDS011;62992;52.052;8.550;2022-09-06T05:28:15;8.65;;;6.13;;
74512;SDS011;62992;52.052;8.550;2022-09-06T05:30:41;6.55;;;5.80;;
74512;SDS011;62992;52.052;8.550;2022-09-06T05:33:07;7.60;;;5.85;;
74512;SDS011;62992;52.052;8.550;2022-09-06T05:35:33;6.60;;;5.90;;
74512;SDS011;62992;52.052;8.550;2022-09-06T05:37:59;7.63;;;6.55;;
74512;SDS011;62992;52.052;8.550;2022-09-06T05:40:25;6.50;;;5.90;;
74512;SDS011;62992;52.052;8.550;2022-09-06T05:42:50;7.38;;;5.90;;
74512;SDS011;62992;52.052;8.550;2022-09-06T05:45:16;7.30;;;5.70;;
74512;SDS011;62992;52.052;8.550;2022-09-06T05:47:42;6.95;;;6.13;;
74512;SDS011;62992;52.052;8.550;2022-09-06T05:50:07;6.63;;;5.95;;
74512;SDS011;62992;52.052;8.550;2022-09-06T05:52:33;8.27;;;6.28;;
74512;SDS011;62992;52.052;8.550;2022-09-06T05:54:59;7.05;;;6.32;;
74512;SDS011;62992;52.052;8.550;2022-09-06T05:57:25;9.15;;;6.18;;
74512;SDS011;62992;52.052;8.550;2022-09-06T05:59:51;7.85;;;6.18;;
74512;SDS011;62992;52.052;8.550;2022-09-06T06:02:18;9.80;;;6.00;;
74512;SDS011;62992;52.052;8.550;2022-09-06T06:04:44;9.02;;;6.35;;
74512;SDS011;62992;52.052;8.550;2022-09-06T06:07:10;9.57;;;6.82;;
74512;SDS011;62992;52.052;8.550;2022-09-06T06:09:35;7.63;;;5.80;;
74512;SDS011;62992;52.052;8.550;2022-09-06T06:12:01;7.38;;;6.07;;
74512;SDS011;62992;52.052;8.550;2022-09-06T06:14:27;8.50;;;6.10;;
74512;SDS011;62992;52.052;8.550;2022-09-06T06:16:53;8.60;;;6.80;;
74512;SDS011;62992;52.052;8.550;2022-09-06T06:19:18;8.25;;;5.90;;
74512;SDS011;62992;52.052;8.550;2022-09-06T06:21:44;8.25;;;6.18;;
74512;SDS011;62992;52.052;8.550;2022-09-06T06:24:09;6.28;;;5.65;;
74512;SDS011;62992;52.052;8.550;2022-09-06T06:26:35;7.50;;;5.75;;
74512;SDS011;62992;52.052;8.550;2022-09-06T06:29:02;7.78;;;6.18;;
74512;SDS011;62992;52.052;8.550;2022-09-06T06:31:30;8.35;;;6.00;;
74512;SDS011;62992;52.052;8.550;2022-09-06T06:33:57;7.85;;;5.75;;
74512;SDS011;62992;52.052;8.550;2022-09-06T06:36:23;7.32;;;6.28;;
74512;SDS011;62992;52.052;8.550;2022-09-06T06:38:51;7.55;;;5.95;;
74512;SDS011;62992;52.052;8.550;2022-09-06T06:41:20;7.38;;;5.45;;
74512;SDS011;62992;52.052;8.550;2022-09-06T06:43:50;9.43;;;6.30;;
74512;SDS011;62992;52.052;8.550;2022-09-06T06:46:17;7.13;;;6.45;;
74512;SDS011;62992;52.052;8.550;2022-09-06T06:48:43;9.48;;;6.70;;
74512;SDS011;62992;52.052;8.550;2022-09-06T06:51:10;7.38;;;6.00;;
74512;SDS011;62992;52.052;8.550;2022-09-06T06:53:38;7.50;;;6.18;;
74512;SDS011;62992;52.052;8.550;2022-09-06T06:56:16;6.80;;;6.07;;
74512;SDS011;62992;52.052;8.550;2022-09-06T06:59:00;6.70;;;6.00;;
74512;SDS011;62992;52.052;8.550;2022-09-06T07:01:29;8.73;;;6.43;;
74512;SDS011;62992;52.052;8.550;2022-09-06T07:03:56;8.57;;;6.35;;
74512;SDS011;62992;52.052;8.550;2022-09-06T07:06:22;8.60;;;7.03;;
74512;SDS011;62992;52.052;8.550;2022-09-06T07:08:48;10.70;;;6.25;;
74512;SDS011;62992;52.052;8.550;2022-09-06T07:11:14;8.07;;;5.95;;
74512;SDS011;62992;52.052;8.550;2022-09-06T07:13:41;6.95;;;6.25;;
74512;SDS011;62992;52.052;8.550;2022-09-06T07:16:09;8.88;;;6.50;;
74512;SDS011;62992;52.052;8.550;2022-09-06T07:18:45;6.97;;;6.28;;
74512;SDS011;62992;52.052;8.550;2022-09-06T07:21:12;7.50;;;6.70;;
74512;SDS011;62992;52.052;8.550;2022-09-06T07:23:39;7.45;;;6.60;;
74512;SDS011;62992;52.052;8.550;2022-09-06T07:26:05;8.13;;;6.40;;
74512;SDS011;62992;52.052;8.550;2022-09-06T07:28:31;8.73;;;6.63;;
74512;SDS011;62992;52.052;8.550;2022-09-06T07:30:57;6.93;;;6.30;;
74512;SDS011;62992;52.052;8.550;2022-09-06T07:33:24;7.35;;;6.07;;
74512;SDS011;62992;52.052;8.550;2022-09-06T07:35:54;6.65;;;6.05;;
74512;SDS011;62992;52.052;8.550;2022-09-06T07:38:24;8.50;;;6.43;;
74512;SDS011;62992;52.052;8.550;2022-09-06T07:40:57;7.60;;;6.05;;
74512;SDS011;62992;52.052;8.550;2022-09-06T07:43:24;9.10;;;6.80;;
74512;SDS011;62992;52.052;8.550;2022-09-06T07:46:10;10.48;;;6.65;;
74512;SDS011;62992;52.052;8.550;2022-09-06T07:48:40;8.23;;;6.80;;
74512;SDS011;62992;52.052;8.550;2022-09-06T07:51:08;7.20;;;6.50;;
74512;SDS011;62992;52.052;8.550;2022-09-06T07:53:35;11.70;;;6.82;;
74512;SDS011;62992;52.052;8.550;2022-09-06T07:56:02;8.38;;;6.32;;
74512;SDS011;62992;52.052;8.550;2022-09-06T07:58:30;8.02;;;7.00;;
74512;SDS011;62992;52.052;8.550;2022-09-06T08:03:44;7.65;;;6.88;;
74512;SDS011;62992;52.052;8.550;2022-09-06T08:06:11;9.35;;;6.90;;
74512;SDS011;62992;52.052;8.550;2022-09-06T08:08:37;8.15;;;7.35;;
74512;SDS011;62992;52.052;8.550;2022-09-06T08:11:03;10.05;;;7.40;;
74512;SDS011;62992;52.052;8.550;2022-09-06T08:13:31;10.80;;;6.88;;
74512;SDS011;62992;52.052;8.550;2022-09-06T08:15:58;9.55;;;7.32;;
74512;SDS011;62992;52.052;8.550;2022-09-06T08:18:25;7.90;;;7.13;;
74512;SDS011;62992;52.052;8.550;2022-09-06T08:20:50;9.38;;;8.05;;
74512;SDS011;62992;52.052;8.550;2022-09-06T08:23:16;9.23;;;7.43;;
74512;SDS011;62992;52.052;8.550;2022-09-06T08:25:42;9.55;;;7.53;;
74512;SDS011;62992;52.052;8.550;2022-09-06T08:28:07;9.77;;;7.57;;
74512;SDS011;62992;52.052;8.550;2022-09-06T08:30:33;8.25;;;6.97;;
74512;SDS011;62992;52.052;8.550;2022-09-06T08:32:59;7.78;;;6.93;;
74512;SDS011;62992;52.052;8.550;2022-09-06T08:35:25;7.97;;;6.80;;
74512;SDS011;62992;52.052;8.550;2022-09-06T08:37:51;8.02;;;6.72;;
74512;SDS011;62992;52.052;8.550;2022-09-06T08:40:19;8.15;;;5.85;;
74512;SDS011;62992;52.052;8.550;2022-09-06T08:42:46;9.45;;;6.60;;
74512;SDS011;62992;52.052;8.550;2022-09-06T08:45:12;8.18;;;5.78;;
74512;SDS011;62992;52.052;8.550;2022-09-06T08:47:43;9.65;;;6.43;;
74512;SDS011;62992;52.052;8.550;2022-09-06T08:50:08;8.05;;;6.80;;
74512;SDS011;62992;52.052;8.550;2022-09-06T08:52:49;8.88;;;6.03;;
74512;SDS011;62992;52.052;8.550;2022-09-06T08:55:40;8.57;;;6.45;;
74512;SDS011;62992;52.052;8.550;2022-09-06T08:58:31;9.05;;;6.85;;
74512;SDS011;62992;52.052;8.550;2022-09-06T09:01:18;8.63;;;6.60;;
74512;SDS011;62992;52.052;8.550;2022-09-06T09:03:49;17.30;;;7.20;;
74512;SDS011;62992;52.052;8.550;2022-09-06T09:06:20;7.80;;;6.10;;
74512;SDS011;62992;52.052;8.550;2022-09-06T09:09:06;12.52;;;6.22;;
74512;SDS011;62992;52.052;8.550;2022-09-06T09:11:34;7.10;;;5.03;;
74512;SDS011;62992;52.052;8.550;2022-09-06T09:16:48;5.30;;;4.80;;
74512;SDS011;62992;52.052;8.550;2022-09-06T09:19:18;6.43;;;5.18;;
74512;SDS011;62992;52.052;8.550;2022-09-06T09:21:44;9.32;;;5.30;;
74512;SDS011;62992;52.052;8.550;2022-09-06T09:24:11;8.32;;;5.00;;
74512;SDS011;62992;52.052;8.550;2022-09-06T09:27:01;8.60;;;4.65;;
74512;SDS011;62992;52.052;8.550;2022-09-06T09:29:40;5.25;;;4.45;;
74512;SDS011;62992;52.052;8.550;2022-09-06T09:32:35;4.80;;;4.10;;
74512;SDS011;62992;52.052;8.550;2022-09-06T09:37:47;5.32;;;4.35;;
74512;SDS011;62992;52.052;8.550;2022-09-06T09:40:35;4.82;;;4.32;;
74512;SDS011;62992;52.052;8.550;2022-09-06T09:43:09;5.15;;;4.55;;
74512;SDS011;62992;52.052;8.550;2022-09-06T09:48:37;5.93;;;3.80;;
74512;SDS011;62992;52.052;8.550;2022-09-06T09:50:55;7.20;;;4.57;;
74512;SDS011;62992;52.052;8.550;2022-09-06T09:53:50;5.40;;;4.47;;
74512;SDS011;62992;52.052;8.550;2022-09-06T09:56:20;5.93;;;3.78;;
74512;SDS011;62992;52.052;8.550;2022-09-06T09:58:58;6.45;;;3.85;;
74512;SDS011;62992;52.052;8.550;2022-09-06T10:01:25;7.07;;;4.05;;
74512;SDS011;62992;52.052;8.550;2022-09-06T10:03:59;5.75;;;4.65;;
74512;SDS011;62992;52.052;8.550;2022-09-06T10:06:30;6.28;;;3.60;;
74512;SDS011;62992;52.052;8.550;2022-09-06T10:08:56;5.90;;;4.00;;
74512;SDS011;62992;52.052;8.550;2022-09-06T10:11:36;4.50;;;3.55;;
74512;SDS011;62992;52.052;8.550;2022-09-06T10:14:11;8.52;;;3.95;;
74512;SDS011;62992;52.052;8.550;2022-09-06T10:16:44;3.78;;;3.30;;
74512;SDS011;62992;52.052;8.550;2022-09-06T10:27:42;3.85;;;3.50;;
74512;SDS011;62992;52.052;8.550;2022-09-06T10:30:23;4.23;;;3.33;;
74512;SDS011;62992;52.052;8.550;2022-09-06T10:35:29;3.35;;;3.00;;
74512;SDS011;62992;52.052;8.550;2022-09-06T10:43:28;4.00;;;3.40;;
74512;SDS011;62992;52.052;8.550;2022-09-06T10:46:04;5.65;;;3.67;;
74512;SDS011;62992;52.052;8.550;2022-09-06T10:48:43;3.85;;;3.50;;
74512;SDS011;62992;52.052;8.550;2022-09-06T10:54:05;8.13;;;3.92;;
74512;SDS011;62992;52.052;8.550;2022-09-06T10:56:37;3.65;;;3.30;;
74512;SDS011;62992;52.052;8.550;2022-09-06T10:59:21;5.20;;;3.03;;
74512;SDS011;62992;52.052;8.550;2022-09-06T11:04:53;4.15;;;3.58;;
74512;SDS011;62992;52.052;8.550;2022-09-06T11:07:29;5.72;;;3.38;;
74512;SDS011;62992;52.052;8.550;2022-09-06T11:09:57;5.50;;;3.88;;
74512;SDS011;62992;52.052;8.550;2022-09-06T11:15:25;3.92;;;3.50;;
74512;SDS011;62992;52.052;8.550;2022-09-06T11:20:45;4.60;;;3.40;;
74512;SDS011;62992;52.052;8.550;2022-09-06T11:28:48;3.63;;;2.90;;
74512;SDS011;62992;52.052;8.550;2022-09-06T11:31:23;3.75;;;2.78;;
74512;SDS011;62992;52.052;8.550;2022-09-06T11:34:05;3.92;;;2.95;;
74512;SDS011;62992;52.052;8.550;2022-09-06T11:36:38;4.18;;;3.03;;
74512;SDS011;62992;52.052;8.550;2022-09-06T11:39:12;5.28;;;3.00;;
74512;SDS011;62992;52.052;8.550;2022-09-06T11:41:40;5.13;;;3.00;;
74512;SDS011;62992;52.052;8.550;2022-09-06T11:44:09;3.63;;;3.03;;
74512;SDS011;62992;52.052;8.550;2022-09-06T11:52:01;2.72;;;2.53;;
74512;SDS011;62992;52.052;8.550;2022-09-06T11:54:47;4.30;;;2.70;;
74512;SDS011;62992;52.052;8.550;2022-09-06T11:57:14;5.03;;;2.75;;
74512;SDS011;62992;52.052;8.550;2022-09-06T12:02:31;4.20;;;2.95;;
74512;SDS011;62992;52.052;8.550;2022-09-06T12:07:32;3.55;;;3.00;;
74512;SDS011;62992;52.052;8.550;2022-09-06T12:13:02;2.95;;;2.65;;
74512;SDS011;62992;52.052;8.550;2022-09-06T12:25:02;3.88;;;3.00;;
74512;SDS011;62992;52.052;8.550;2022-09-06T12:27:38;4.63;;;3.30;;
74512;SDS011;62992;52.052;8.550;2022-09-06T12:30:38;5.13;;;2.80;;
74512;SDS011;62992;52.052;8.550;2022-09-06T12:33:08;4.13;;;2.70;;
74512;SDS011;62992;52.052;8.550;2022-09-06T12:35:39;4.93;;;3.03;;
74512;SDS011;62992;52.052;8.550;2022-09-06T12:38:06;4.65;;;2.72;;
74512;SDS011;62992;52.052;8.550;2022-09-06T12:40:36;5.90;;;3.58;;
74512;SDS011;62992;52.052;8.550;2022-09-06T12:43:09;4.10;;;3.17;;
74512;SDS011;62992;52.052;8.550;2022-09-06T12:45:40;3.65;;;3.00;;
74512;SDS011;62992;52.052;8.550;2022-09-06T12:48:09;6.03;;;3.03;;
74512;SDS011;62992;52.052;8.550;2022-09-06T12:50:36;3.42;;;2.97;;
74512;SDS011;62992;52.052;8.550;2022-09-06T12:53:03;5.80;;;4.18;;
74512;SDS011;62992;52.052;8.550;2022-09-06T12:55:41;3.53;;;3.22;;
74512;SDS011;62992;52.052;8.550;2022-09-06T12:58:09;3.60;;;3.10;;
74512;SDS011;62992;52.052;8.550;2022-09-06T13:00:40;4.00;;;3.08;;
74512;SDS011;62992;52.052;8.550;2022-09-06T13:05:40;3.58;;;3.13;;
74512;SDS011;62992;52.052;8.550;2022-09-06T13:08:11;5.57;;;2.88;;
74512;SDS011;62992;52.052;8.550;2022-09-06T13:10:39;4.68;;;3.40;;
74512;SDS011;62992;52.052;8.550;2022-09-06T13:13:08;5.95;;;3.17;;
74512;SDS011;62992;52.052;8.550;2022-09-06T13:15:35;4.95;;;2.90;;
74512;SDS011;62992;52.052;8.550;2022-09-06T13:20:56;5.23;;;3.27;;
74512;SDS011;62992;52.052;8.550;2022-09-06T13:23:27;3.13;;;2.83;;
74512;SDS011;62992;52.052;8.550;2022-09-06T13:25:53;3.38;;;3.08;;
74512;SDS011;62992;52.052;8.550;2022-09-06T13:28:23;3.63;;;3.05;;
74512;SDS011;62992;52.052;8.550;2022-09-06T13:31:02;4.40;;;4.03;;
74512;SDS011;62992;52.052;8.550;2022-09-06T13:33:28;3.55;;;3.05;;
74512;SDS011;62992;52.052;8.550;2022-09-06T13:38:57;5.35;;;3.10;;
74512;SDS011;62992;52.052;8.550;2022-09-06T13:46:35;3.13;;;2.80;;
74512;SDS011;62992;52.052;8.550;2022-09-06T13:49:01;5.00;;;3.10;;
74512;SDS011;62992;52.052;8.550;2022-09-06T13:51:27;5.32;;;2.97;;
74512;SDS011;62992;52.052;8.550;2022-09-06T13:54:03;4.78;;;3.08;;
74512;SDS011;62992;52.052;8.550;2022-09-06T13:56:28;4.28;;;3.20;;
74512;SDS011;62992;52.052;8.550;2022-09-06T13:58:54;4.05;;;3.15;;
74512;SDS011;62992;52.052;8.550;2022-09-06T14:01:19;3.70;;;3.30;;
74512;SDS011;62992;52.052;8.550;2022-09-06T14:03:45;4.03;;;3.08;;
74512;SDS011;62992;52.052;8.550;2022-09-06T14:06:11;3.40;;;3.00;;
74512;SDS011;62992;52.052;8.550;2022-09-06T14:08:37;4.82;;;2.88;;
74512;SDS011;62992;52.052;8.550;2022-09-06T14:11:03;3.67;;;3.38;;
74512;SDS011;62992;52.052;8.550;2022-09-06T14:13:29;4.35;;;2.70;;
74512;SDS011;62992;52.052;8.550;2022-09-06T14:15:55;3.92;;;3.53;;
74512;SDS011;62992;52.052;8.550;2022-09-06T14:18:21;5.05;;;3.20;;
74512;SDS011;62992;52.052;8.550;2022-09-06T14:20:50;3.40;;;2.92;;
74512;SDS011;62992;52.052;8.550;2022-09-06T14:23:17;3.50;;;3.20;;
74512;SDS011;62992;52.052;8.550;2022-09-06T14:25:43;4.32;;;3.10;;
74512;SDS011;62992;52.052;8.550;2022-09-06T14:28:08;6.13;;;3.42;;
74512;SDS011;62992;52.052;8.550;2022-09-06T14:30:34;3.58;;;2.92;;
74512;SDS011;62992;52.052;8.550;2022-09-06T14:33:02;4.03;;;3.08;;
74512;SDS011;62992;52.052;8.550;2022-09-06T14:35:29;3.30;;;3.00;;
74512;SDS011;62992;52.052;8.550;2022-09-06T14:37:56;3.38;;;2.90;;
74512;SDS011;62992;52.052;8.550;2022-09-06T14:40:23;3.45;;;3.10;;
74512;SDS011;62992;52.052;8.550;2022-09-06T14:42:48;2.97;;;2.70;;
74512;SDS011;62992;52.052;8.550;2022-09-06T14:45:14;3.35;;;3.03;;
74512;SDS011;62992;52.052;8.550;2022-09-06T14:47:40;5.72;;;3.10;;
74512;SDS011;62992;52.052;8.550;2022-09-06T14:50:06;3.00;;;2.53;;
74512;SDS011;62992;52.052;8.550;2022-09-06T14:52:32;4.75;;;2.90;;
74512;SDS011;62992;52.052;8.550;2022-09-06T14:54:58;3.88;;;2.90;;
74512;SDS011;62992;52.052;8.550;2022-09-06T14:57:24;4.47;;;2.75;;
74512;SDS011;62992;52.052;8.550;2022-09-06T14:59:50;4.95;;;3.15;;
74512;SDS011;62992;52.052;8.550;2022-09-06T15:02:16;4.93;;;2.95;;
74512;SDS011;62992;52.052;8.550;2022-09-06T15:04:42;4.00;;;3.28;;
74512;SDS011;62992;52.052;8.550;2022-09-06T15:07:08;3.47;;;3.15;;
74512;SDS011;62992;52.052;8.550;2022-09-06T15:09:34;4.22;;;3.28;;
74512;SDS011;62992;52.052;8.550;2022-09-06T15:12:00;3.75;;;3.45;;
74512;SDS011;62992;52.052;8.550;2022-09-06T15:14:27;4.10;;;3.40;;
74512;SDS011;62992;52.052;8.550;2022-09-06T15:16:56;4.07;;;3.20;;
74512;SDS011;62992;52.052;8.550;2022-09-06T15:19:24;4.93;;;3.28;;
74512;SDS011;62992;52.052;8.550;2022-09-06T15:21:51;4.32;;;3.30;;
74512;SDS011;62992;52.052;8.550;2022-09-06T15:24:18;2.88;;;2.67;;
74512;SDS011;62992;52.052;8.550;2022-09-06T15:26:44;4.63;;;2.90;;
74512;SDS011;62992;52.052;8.550;2022-09-06T15:29:11;5.10;;;3.00;;
74512;SDS011;62992;52.052;8.550;2022-09-06T15:31:37;5.78;;;3.75;;
74512;SDS011;62992;52.052;8.550;2022-09-06T15:34:04;4.90;;;4.07;;
74512;SDS011;62992;52.052;8.550;2022-09-06T15:36:31;8.05;;;4.55;;
74512;SDS011;62992;52.052;8.550;2022-09-06T15:38:58;5.85;;;5.05;;
74512;SDS011;62992;52.052;8.550;2022-09-06T15:41:28;6.18;;;4.45;;
74512;SDS011;62992;52.052;8.550;2022-09-06T15:43:57;6.28;;;4.60;;
74512;SDS011;62992;52.052;8.550;2022-09-06T15:48:58;7.10;;;3.83;;
74512;SDS011;62992;52.052;8.550;2022-09-06T15:51:26;5.95;;;3.90;;
74512;SDS011;62992;52.052;8.550;2022-09-06T15:53:53;5.20;;;4.10;;
74512;SDS011;62992;52.052;8.550;2022-09-06T15:56:19;5.75;;;4.03;;
74512;SDS011;62992;52.052;8.550;2022-09-06T15:58:46;8.07;;;4.20;;
74512;SDS011;62992;52.052;8.550;2022-09-06T16:01:13;6.38;;;4.13;;
74512;SDS011;62992;52.052;8.550;2022-09-06T16:03:47;4.45;;;4.05;;
74512;SDS011;62992;52.052;8.550;2022-09-06T16:08:46;4.32;;;3.92;;
74512;SDS011;62992;52.052;8.550;2022-09-06T16:11:13;7.00;;;3.78;;
74512;SDS011;62992;52.052;8.550;2022-09-06T16:13:40;3.90;;;3.50;;
74512;SDS011;62992;52.052;8.550;2022-09-06T16:16:08;6.28;;;3.90;;
74512;SDS011;62992;52.052;8.550;2022-09-06T16:18:39;7.20;;;3.80;;
74512;SDS011;62992;52.052;8.550;2022-09-06T16:21:07;4.63;;;3.17;;
74512;SDS011;62992;52.052;8.550;2022-09-06T16:23:38;4.57;;;3.45;;
74512;SDS011;62992;52.052;8.550;2022-09-06T16:26:05;5.63;;;3.85;;
74512;SDS011;62992;52.052;8.550;2022-09-06T16:28:33;4.32;;;3.40;;
74512;SDS011;62992;52.052;8.550;2022-09-06T16:31:01;5.45;;;3.70;;
74512;SDS011;62992;52.052;8.550;2022-09-06T16:33:32;4.53;;;3.85;;
74512;SDS011;62992;52.052;8.550;2022-09-06T16:35:59;5.47;;;3.80;;
74512;SDS011;62992;52.052;8.550;2022-09-06T16:38:27;5.00;;;3.65;;
74512;SDS011;62992;52.052;8.550;2022-09-06T16:40:59;4.22;;;3.63;;
74512;SDS011;62992;52.052;8.550;2022-09-06T16:43:32;6.90;;;3.72;;
74512;SDS011;62992;52.052;8.550;2022-09-06T16:45:58;3.95;;;3.55;;
74512;SDS011;62992;52.052;8.550;2022-09-06T16:48:25;7.32;;;3.90;;
74512;SDS011;62992;52.052;8.550;2022-09-06T16:50:52;4.05;;;3.65;;
74512;SDS011;62992;52.052;8.550;2022-09-06T16:53:18;4.93;;;3.72;;
74512;SDS011;62992;52.052;8.550;2022-09-06T16:55:44;5.03;;;3.90;;
74512;SDS011;62992;52.052;8.550;2022-09-06T16:58:10;7.63;;;4.10;;
74512;SDS011;62992;52.052;8.550;2022-09-06T17:00:39;4.60;;;4.20;;